createdAt,value
2022-12-03T00:00:40.576Z,151.50
2022-12-03T00:01:40.557Z,157.20
2022-12-03T00:02:40.715Z,160.00
2022-12-03T00:03:40.736Z,147.90
2022-12-03T00:04:40.530Z,155.30
2022-12-03T00:05:48.221Z,151.50
2022-12-03T00:06:41.488Z,148.50
2022-12-03T00:07:40.546Z,145.80
2022-12-03T00:08:40.469Z,144.20
2022-12-03T00:09:40.473Z,153.10
2022-12-03T00:10:40.439Z,148.90
2022-12-03T00:11:40.431Z,141.20
2022-12-03T00:12:40.409Z,141.50
2022-12-03T00:13:40.399Z,145.00
2022-12-03T00:14:44.689Z,143.30
2022-12-03T00:15:40.406Z,144.70
2022-12-03T00:16:40.362Z,136.50
2022-12-03T00:17:40.364Z,146.10
2022-12-03T00:18:40.349Z,148.60
2022-12-03T00:19:40.341Z,147.80
2022-12-03T00:20:40.319Z,148.00
2022-12-03T00:21:40.318Z,152.10
2022-12-03T00:22:42.293Z,151.50
2022-12-03T00:23:42.303Z,146.70
2022-12-03T00:24:40.290Z,144.40
2022-12-03T00:25:40.270Z,146.60
2022-12-03T00:26:40.250Z,148.70
2022-12-03T00:27:41.188Z,151.10
2022-12-03T00:28:40.230Z,148.70
2022-12-03T00:29:40.210Z,151.70
2022-12-03T00:30:41.191Z,152.40
2022-12-03T00:31:40.258Z,153.00
2022-12-03T00:32:40.173Z,151.40
2022-12-03T00:33:40.161Z,158.20
2022-12-03T00:34:40.141Z,155.20
2022-12-03T00:35:40.154Z,161.30
2022-12-03T00:36:40.122Z,156.00
2022-12-03T00:37:40.114Z,153.70
2022-12-03T00:38:40.110Z,144.80
2022-12-03T00:39:40.094Z,151.10
2022-12-03T00:40:40.082Z,143.10
2022-12-03T00:41:40.064Z,152.50
2022-12-03T00:42:40.049Z,142.80
2022-12-03T00:43:40.039Z,145.80
2022-12-03T00:44:40.021Z,148.30
2022-12-03T00:45:40.025Z,146.40
2022-12-03T00:46:40.082Z,143.10
2022-12-03T00:47:39.993Z,144.00
2022-12-03T00:48:39.981Z,139.10
2022-12-03T00:49:39.972Z,145.00
2022-12-03T00:50:40.193Z,148.30
2022-12-03T00:51:39.935Z,145.80
2022-12-03T00:52:41.914Z,147.40
2022-12-03T00:53:39.915Z,143.80
2022-12-03T00:54:39.899Z,141.60
2022-12-03T00:55:39.893Z,141.20
2022-12-03T00:56:39.879Z,141.20
2022-12-03T00:57:39.860Z,142.70
2022-12-03T00:58:39.844Z,141.70
2022-12-03T00:59:39.845Z,142.40
2022-12-03T01:00:39.825Z,147.70
2022-12-03T01:01:39.888Z,137.40
2022-12-03T01:02:39.796Z,146.20
2022-12-03T01:03:39.796Z,144.00
2022-12-03T01:04:39.813Z,137.70
2022-12-03T01:05:39.794Z,135.50
2022-12-03T01:06:39.746Z,139.80
2022-12-03T01:07:39.777Z,140.50
2022-12-03T01:08:39.716Z,143.10
2022-12-03T01:09:39.716Z,131.40
2022-12-03T01:10:39.707Z,140.30
2022-12-03T01:11:39.691Z,135.50
2022-12-03T01:12:39.676Z,130.70
2022-12-03T01:13:39.663Z,134.30
2022-12-03T01:14:39.655Z,134.80
2022-12-03T01:15:39.680Z,146.20
2022-12-03T01:16:40.588Z,147.30
2022-12-03T01:17:39.616Z,137.80
2022-12-03T01:18:39.611Z,134.20
2022-12-03T01:19:42.294Z,137.30
2022-12-03T01:20:40.586Z,137.20
2022-12-03T01:21:39.819Z,139.20
2022-12-03T01:22:39.564Z,143.00
2022-12-03T01:23:39.538Z,138.00
2022-12-03T01:24:39.527Z,131.70
2022-12-03T01:25:39.531Z,129.50
2022-12-03T01:26:39.508Z,133.70
2022-12-03T01:27:39.495Z,127.20
2022-12-03T01:28:39.486Z,130.70
2022-12-03T01:29:39.468Z,143.20
2022-12-03T01:30:39.459Z,127.40
2022-12-03T01:31:39.627Z,135.60
2022-12-03T01:32:39.433Z,135.00
2022-12-03T01:33:39.416Z,138.70
2022-12-03T01:34:39.411Z,132.20
2022-12-03T01:35:39.399Z,131.20
2022-12-03T01:36:39.380Z,148.20
2022-12-03T01:37:39.368Z,132.80
2022-12-03T01:38:39.360Z,127.50
2022-12-03T01:39:39.350Z,136.50
2022-12-03T01:40:39.340Z,134.50
2022-12-03T01:41:39.330Z,135.90
2022-12-03T01:42:39.312Z,128.30
2022-12-03T01:43:39.298Z,139.60
2022-12-03T01:44:39.285Z,131.20
2022-12-03T01:45:39.299Z,132.40
2022-12-03T01:46:39.335Z,133.30
2022-12-03T01:47:39.241Z,134.20
2022-12-03T01:48:39.239Z,137.20
2022-12-03T01:49:39.221Z,124.40
2022-12-03T01:50:39.231Z,127.60
2022-12-03T01:51:39.188Z,126.00
2022-12-03T01:52:39.201Z,127.60
2022-12-03T01:53:39.173Z,127.00
2022-12-03T01:54:39.170Z,129.90
2022-12-03T01:55:39.152Z,130.20
2022-12-03T01:56:39.132Z,128.60
2022-12-03T01:57:39.119Z,126.50
2022-12-03T01:58:39.113Z,136.20
2022-12-03T01:59:39.093Z,140.80
2022-12-03T02:00:39.105Z,132.60
2022-12-03T02:01:39.162Z,133.10
2022-12-03T02:02:39.072Z,133.00
2022-12-03T02:03:39.102Z,130.20
2022-12-03T02:04:39.061Z,132.00
2022-12-03T02:05:39.042Z,134.30
2022-12-03T02:06:39.022Z,138.00
2022-12-03T02:07:39.021Z,132.40
2022-12-03T02:08:38.996Z,124.00
2022-12-03T02:09:38.994Z,143.90
2022-12-03T02:10:38.977Z,127.40
2022-12-03T02:11:38.955Z,134.40
2022-12-03T02:12:38.944Z,138.30
2022-12-03T02:13:38.921Z,128.00
2022-12-03T02:14:38.920Z,125.30
2022-12-03T02:15:38.914Z,125.30
2022-12-03T02:16:38.920Z,130.00
2022-12-03T02:17:38.884Z,129.80
2022-12-03T02:18:39.101Z,130.60
2022-12-03T02:19:38.855Z,134.80
2022-12-03T02:20:38.863Z,135.30
2022-12-03T02:21:38.827Z,139.70
2022-12-03T02:22:38.817Z,135.30
2022-12-03T02:23:38.796Z,130.20
2022-12-03T02:24:38.806Z,135.00
2022-12-03T02:25:38.785Z,133.70
2022-12-03T02:26:38.774Z,139.00
2022-12-03T02:27:38.745Z,137.10
2022-12-03T02:28:38.754Z,138.10
2022-12-03T02:29:38.726Z,139.60
2022-12-03T02:30:38.730Z,139.00
2022-12-03T02:31:38.742Z,144.30
2022-12-03T02:32:38.706Z,141.70
2022-12-03T02:33:38.687Z,144.20
2022-12-03T02:34:38.680Z,138.60
2022-12-03T02:35:38.666Z,139.40
2022-12-03T02:36:38.647Z,142.30
2022-12-03T02:37:38.636Z,141.70
2022-12-03T02:38:38.618Z,139.40
2022-12-03T02:39:38.599Z,141.40
2022-12-03T02:40:38.601Z,144.30
2022-12-03T02:41:38.846Z,151.60
2022-12-03T02:42:38.589Z,148.00
2022-12-03T02:43:38.551Z,142.10
2022-12-03T02:44:38.570Z,142.30
2022-12-03T02:45:38.535Z,147.40
2022-12-03T02:46:38.612Z,151.50
2022-12-03T02:47:38.508Z,143.40
2022-12-03T02:48:38.740Z,148.60
2022-12-03T02:49:38.505Z,147.90
2022-12-03T02:50:38.488Z,146.10
2022-12-03T02:51:38.456Z,143.90
2022-12-03T02:52:38.446Z,149.40
2022-12-03T02:53:38.429Z,150.20
2022-12-03T02:54:38.429Z,147.40
2022-12-03T02:55:38.431Z,144.50
2022-12-03T02:56:38.397Z,145.00
2022-12-03T02:57:38.383Z,140.50
2022-12-03T02:58:38.368Z,145.20
2022-12-03T02:59:38.348Z,148.80
2022-12-03T03:00:38.402Z,133.50
2022-12-03T03:01:38.491Z,136.10
2022-12-03T03:02:38.375Z,140.80
2022-12-03T03:03:38.308Z,132.10
2022-12-03T03:04:38.306Z,144.70
2022-12-03T03:05:38.289Z,143.20
2022-12-03T03:06:38.272Z,141.80
2022-12-03T03:07:38.318Z,131.70
2022-12-03T03:08:38.249Z,130.60
2022-12-03T03:09:38.232Z,138.50
2022-12-03T03:10:38.231Z,134.00
2022-12-03T03:11:38.211Z,131.40
2022-12-03T03:12:39.544Z,141.20
2022-12-03T03:13:39.128Z,134.10
2022-12-03T03:14:38.179Z,135.40
2022-12-03T03:15:38.161Z,134.50
2022-12-03T03:16:38.218Z,134.50
2022-12-03T03:17:38.132Z,127.70
2022-12-03T03:18:38.151Z,131.70
2022-12-03T03:19:39.058Z,128.80
2022-12-03T03:20:38.102Z,127.80
2022-12-03T03:21:38.093Z,129.70
2022-12-03T03:22:38.081Z,131.80
2022-12-03T03:23:38.053Z,131.20
2022-12-03T03:24:38.081Z,137.60
2022-12-03T03:25:38.042Z,129.30
2022-12-03T03:26:38.031Z,134.50
2022-12-03T03:27:38.010Z,129.60
2022-12-03T03:28:38.010Z,128.00
2022-12-03T03:29:37.983Z,129.00
2022-12-03T03:30:38.002Z,132.30
2022-12-03T03:31:37.981Z,132.10
2022-12-03T03:32:38.185Z,131.90
2022-12-03T03:33:37.937Z,126.90
2022-12-03T03:34:37.924Z,127.00
2022-12-03T03:35:37.913Z,126.90
2022-12-03T03:36:37.893Z,131.40
2022-12-03T03:37:37.889Z,133.30
2022-12-03T03:38:37.893Z,124.90
2022-12-03T03:39:37.859Z,132.50
2022-12-03T03:40:37.870Z,130.60
2022-12-03T03:41:37.836Z,132.20
2022-12-03T03:42:37.824Z,127.50
2022-12-03T03:43:37.804Z,126.60
2022-12-03T03:44:37.815Z,124.50
2022-12-03T03:45:37.809Z,127.30
2022-12-03T03:46:37.771Z,130.00
2022-12-03T03:47:37.764Z,129.00
2022-12-03T03:48:37.764Z,130.30
2022-12-03T03:49:37.761Z,132.90
2022-12-03T03:50:37.995Z,129.60
2022-12-03T03:51:37.715Z,127.80
2022-12-03T03:52:37.698Z,128.60
2022-12-03T03:53:37.915Z,135.00
2022-12-03T03:54:37.678Z,129.10
2022-12-03T03:55:37.667Z,128.60
2022-12-03T03:56:37.658Z,125.70
2022-12-03T03:57:37.636Z,124.20
2022-12-03T03:58:37.626Z,128.10
2022-12-03T03:59:37.614Z,125.30
2022-12-03T04:00:37.627Z,128.40
2022-12-03T04:01:37.649Z,129.40
2022-12-03T04:02:37.577Z,124.50
2022-12-03T04:03:37.649Z,125.40
2022-12-03T04:04:37.601Z,127.00
2022-12-03T04:05:37.551Z,122.20
2022-12-03T04:06:37.528Z,129.10
2022-12-03T04:07:37.576Z,128.80
2022-12-03T04:08:37.498Z,123.80
2022-12-03T04:09:37.513Z,119.70
2022-12-03T04:10:37.488Z,115.80
2022-12-03T04:11:37.468Z,120.20
2022-12-03T04:12:37.460Z,114.80
2022-12-03T04:13:37.438Z,121.60
2022-12-03T04:14:37.424Z,121.70
2022-12-03T04:15:37.430Z,125.20
2022-12-03T04:16:37.452Z,121.50
2022-12-03T04:17:37.398Z,121.80
2022-12-03T04:18:37.384Z,113.50
2022-12-03T04:19:37.370Z,118.50
2022-12-03T04:20:37.360Z,112.20
2022-12-03T04:21:37.357Z,113.90
2022-12-03T04:22:37.341Z,123.60
2022-12-03T04:23:37.329Z,112.80
2022-12-03T04:24:38.267Z,111.50
2022-12-03T04:25:37.306Z,115.50
2022-12-03T04:26:37.283Z,114.70
2022-12-03T04:27:37.269Z,111.00
2022-12-03T04:28:37.272Z,120.30
2022-12-03T04:29:37.240Z,112.70
2022-12-03T04:30:37.308Z,114.60
2022-12-03T04:31:37.220Z,111.80
2022-12-03T04:32:37.212Z,111.00
2022-12-03T04:33:37.201Z,112.00
2022-12-03T04:34:37.181Z,111.60
2022-12-03T04:35:37.247Z,114.90
2022-12-03T04:36:37.150Z,110.40
2022-12-03T04:37:37.142Z,108.20
2022-12-03T04:38:37.133Z,115.20
2022-12-03T04:39:37.112Z,108.00
2022-12-03T04:40:37.123Z,112.10
2022-12-03T04:41:37.091Z,114.00
2022-12-03T04:42:37.081Z,104.10
2022-12-03T04:43:37.083Z,106.40
2022-12-03T04:44:37.071Z,109.80
2022-12-03T04:45:37.076Z,114.50
2022-12-03T04:46:37.042Z,116.20
2022-12-03T04:47:40.024Z,112.70
2022-12-03T04:48:37.004Z,114.30
2022-12-03T04:49:36.994Z,111.50
2022-12-03T04:50:37.005Z,112.50
2022-12-03T04:51:36.977Z,109.60
2022-12-03T04:52:36.970Z,113.50
2022-12-03T04:53:39.673Z,111.20
2022-12-03T04:54:37.966Z,108.00
2022-12-03T04:55:36.923Z,113.10
2022-12-03T04:56:36.914Z,115.00
2022-12-03T04:57:36.894Z,107.10
2022-12-03T04:58:36.895Z,120.80
2022-12-03T04:59:36.873Z,115.00
2022-12-03T05:00:36.887Z,110.20
2022-12-03T05:01:36.915Z,111.00
2022-12-03T05:02:36.910Z,119.10
2022-12-03T05:03:36.826Z,111.00
2022-12-03T05:04:36.814Z,111.30
2022-12-03T05:05:36.811Z,106.30
2022-12-03T05:06:36.794Z,113.00
2022-12-03T05:07:37.073Z,114.30
2022-12-03T05:08:36.770Z,111.10
2022-12-03T05:09:36.765Z,108.00
2022-12-03T05:10:36.755Z,106.00
2022-12-03T05:11:36.720Z,97.90
2022-12-03T05:12:36.729Z,105.80
2022-12-03T05:13:36.696Z,115.20
2022-12-03T05:14:36.700Z,110.80
2022-12-03T05:15:36.677Z,118.60
2022-12-03T05:16:36.739Z,107.30
2022-12-03T05:17:36.657Z,112.80
2022-12-03T05:18:36.635Z,112.80
2022-12-03T05:19:36.626Z,115.00
2022-12-03T05:20:36.617Z,115.90
2022-12-03T05:21:36.597Z,107.10
2022-12-03T05:22:37.559Z,113.10
2022-12-03T05:23:36.572Z,104.50
2022-12-03T05:24:36.583Z,108.60
2022-12-03T05:25:36.558Z,112.90
2022-12-03T05:26:36.557Z,111.60
2022-12-03T05:27:36.536Z,115.80
2022-12-03T05:28:36.540Z,110.40
2022-12-03T05:29:36.507Z,112.00
2022-12-03T05:30:36.564Z,102.50
2022-12-03T05:31:36.484Z,114.40
2022-12-03T05:32:36.459Z,106.90
2022-12-03T05:33:39.594Z,112.20
2022-12-03T05:34:37.440Z,105.40
2022-12-03T05:35:36.458Z,104.20
2022-12-03T05:36:36.422Z,106.10
2022-12-03T05:37:36.422Z,110.80
2022-12-03T05:38:36.392Z,107.00
2022-12-03T05:39:36.378Z,99.70
2022-12-03T05:40:36.368Z,101.20
2022-12-03T05:41:36.349Z,104.00
2022-12-03T05:42:36.349Z,102.30
2022-12-03T05:43:36.330Z,101.70
2022-12-03T05:44:36.320Z,100.10
2022-12-03T05:45:36.320Z,100.50
2022-12-03T05:46:36.361Z,101.10
2022-12-03T05:47:36.285Z,99.30
2022-12-03T05:48:36.260Z,93.50
2022-12-03T05:49:36.271Z,97.30
2022-12-03T05:50:36.252Z,104.30
2022-12-03T05:51:36.250Z,95.20
2022-12-03T05:52:36.219Z,99.20
2022-12-03T05:53:36.220Z,98.60
2022-12-03T05:54:36.201Z,95.30
2022-12-03T05:55:36.192Z,99.80
2022-12-03T05:56:36.162Z,101.60
2022-12-03T05:57:36.161Z,95.50
2022-12-03T05:58:36.140Z,105.60
2022-12-03T05:59:36.141Z,100.00
2022-12-03T06:00:41.836Z,101.80
2022-12-03T06:01:37.122Z,94.60
2022-12-03T06:02:36.246Z,97.00
2022-12-03T06:03:36.228Z,107.40
2022-12-03T06:04:36.062Z,98.00
2022-12-03T06:05:36.072Z,103.10
2022-12-03T06:06:36.042Z,98.90
2022-12-03T06:07:36.066Z,94.70
2022-12-03T06:08:36.020Z,102.90
2022-12-03T06:09:36.003Z,93.00
2022-12-03T06:10:36.028Z,93.50
2022-12-03T06:11:36.013Z,99.60
2022-12-03T06:12:35.982Z,101.10
2022-12-03T06:13:35.964Z,96.00
2022-12-03T06:14:35.943Z,94.20
2022-12-03T06:15:41.929Z,98.60
2022-12-03T06:16:37.013Z,101.00
2022-12-03T06:17:35.907Z,94.40
2022-12-03T06:18:35.910Z,93.70
2022-12-03T06:19:35.979Z,91.30
2022-12-03T06:20:35.875Z,95.00
2022-12-03T06:21:35.868Z,89.70
2022-12-03T06:22:36.797Z,97.40
2022-12-03T06:23:35.847Z,94.60
2022-12-03T06:24:35.820Z,89.60
2022-12-03T06:25:35.816Z,98.20
2022-12-03T06:26:35.807Z,97.20
2022-12-03T06:27:35.787Z,90.30
2022-12-03T06:28:35.775Z,96.20
2022-12-03T06:29:35.777Z,92.20
2022-12-03T06:30:35.763Z,90.60
2022-12-03T06:31:35.796Z,89.40
2022-12-03T06:32:35.737Z,92.90
2022-12-03T06:33:35.718Z,92.80
2022-12-03T06:34:35.718Z,89.30
2022-12-03T06:35:35.720Z,85.50
2022-12-03T06:36:36.637Z,92.40
2022-12-03T06:37:35.663Z,89.10
2022-12-03T06:38:35.654Z,87.00
2022-12-03T06:39:35.636Z,91.90
2022-12-03T06:40:35.638Z,88.10
2022-12-03T06:41:35.619Z,91.50
2022-12-03T06:42:35.596Z,87.30
2022-12-03T06:43:35.595Z,87.70
2022-12-03T06:44:35.567Z,95.60
2022-12-03T06:45:36.530Z,89.20
2022-12-03T06:46:36.522Z,90.90
2022-12-03T06:47:35.538Z,95.20
2022-12-03T06:48:36.117Z,100.80
2022-12-03T06:49:35.507Z,100.70
2022-12-03T06:50:35.509Z,101.50
2022-12-03T06:51:35.484Z,96.20
2022-12-03T06:52:35.478Z,96.00
2022-12-03T06:53:35.459Z,97.70
2022-12-03T06:54:35.448Z,99.10
2022-12-03T06:55:35.441Z,94.70
2022-12-03T06:56:40.436Z,99.20
2022-12-03T06:57:36.448Z,91.70
2022-12-03T06:58:35.397Z,100.40
2022-12-03T06:59:35.410Z,98.60
2022-12-03T07:00:35.400Z,96.20
2022-12-03T07:01:35.390Z,105.10
2022-12-03T07:02:35.400Z,98.10
2022-12-03T07:03:35.333Z,102.50
2022-12-03T07:04:35.329Z,97.60
2022-12-03T07:05:35.332Z,96.90
2022-12-03T07:06:35.310Z,102.20
2022-12-03T07:07:35.304Z,94.80
2022-12-03T07:08:36.228Z,99.80
2022-12-03T07:09:35.260Z,98.20
2022-12-03T07:10:36.212Z,95.80
2022-12-03T07:11:35.231Z,99.90
2022-12-03T07:12:35.221Z,100.30
2022-12-03T07:13:35.231Z,97.90
2022-12-03T07:14:35.213Z,98.60
2022-12-03T07:15:35.201Z,101.90
2022-12-03T07:16:35.250Z,98.90
2022-12-03T07:17:35.170Z,102.30
2022-12-03T07:18:35.311Z,93.30
2022-12-03T07:19:35.139Z,95.90
2022-12-03T07:20:36.101Z,94.80
2022-12-03T07:21:35.113Z,97.80
2022-12-03T07:22:36.054Z,98.60
2022-12-03T07:23:35.087Z,91.00
2022-12-03T07:24:35.063Z,100.50
2022-12-03T07:25:36.046Z,92.70
2022-12-03T07:26:35.993Z,97.50
2022-12-03T07:27:35.035Z,100.80
2022-12-03T07:28:35.030Z,101.30
2022-12-03T07:29:35.013Z,99.80
2022-12-03T07:30:35.013Z,92.90
2022-12-03T07:31:35.048Z,91.40
2022-12-03T07:32:34.974Z,90.80
2022-12-03T07:33:34.963Z,86.60
2022-12-03T07:34:34.943Z,91.80
2022-12-03T07:35:35.910Z,96.80
2022-12-03T07:36:34.921Z,96.50
2022-12-03T07:37:34.911Z,93.60
2022-12-03T07:38:34.896Z,95.10
2022-12-03T07:39:34.892Z,90.80
2022-12-03T07:40:35.826Z,91.50
2022-12-03T07:41:35.115Z,90.10
2022-12-03T07:42:34.855Z,88.70
2022-12-03T07:43:35.801Z,91.90
2022-12-03T07:44:34.827Z,89.40
2022-12-03T07:45:34.816Z,90.60
2022-12-03T07:46:34.831Z,93.10
2022-12-03T07:47:34.786Z,92.00
2022-12-03T07:48:34.804Z,84.20
2022-12-03T07:49:34.798Z,92.30
2022-12-03T07:50:34.747Z,89.70
2022-12-03T07:51:34.737Z,89.30
2022-12-03T07:52:34.717Z,86.90
2022-12-03T07:53:34.724Z,90.80
2022-12-03T07:54:34.694Z,81.70
2022-12-03T07:55:34.696Z,88.70
2022-12-03T07:56:34.679Z,89.50
2022-12-03T07:57:34.668Z,80.70
2022-12-03T07:58:34.671Z,83.60
2022-12-03T07:59:34.638Z,88.40
2022-12-03T08:00:34.671Z,85.90
2022-12-03T08:01:34.698Z,82.80
2022-12-03T08:02:34.684Z,90.40
2022-12-03T08:03:34.592Z,89.50
2022-12-03T08:04:34.583Z,89.40
2022-12-03T08:05:34.591Z,88.00
2022-12-03T08:06:35.488Z,84.90
2022-12-03T08:07:34.567Z,82.10
2022-12-03T08:08:34.528Z,87.90
2022-12-03T08:09:34.529Z,82.30
2022-12-03T08:10:34.508Z,83.70
2022-12-03T08:11:34.488Z,81.50
2022-12-03T08:12:35.430Z,77.00
2022-12-03T08:13:34.458Z,74.70
2022-12-03T08:14:34.452Z,84.90
2022-12-03T08:15:39.313Z,81.70
2022-12-03T08:16:35.484Z,82.80
2022-12-03T08:17:35.382Z,81.80
2022-12-03T08:18:34.391Z,78.80
2022-12-03T08:19:34.390Z,78.10
2022-12-03T08:20:34.385Z,81.30
2022-12-03T08:21:34.360Z,77.50
2022-12-03T08:22:34.347Z,84.20
2022-12-03T08:23:34.353Z,78.40
2022-12-03T08:24:34.325Z,77.70
2022-12-03T08:25:34.328Z,78.50
2022-12-03T08:26:34.302Z,81.40
2022-12-03T08:27:34.520Z,81.00
2022-12-03T08:28:34.280Z,85.10
2022-12-03T08:29:34.272Z,79.70
2022-12-03T08:30:34.261Z,78.90
2022-12-03T08:31:34.294Z,82.70
2022-12-03T08:32:34.227Z,79.10
2022-12-03T08:33:34.223Z,84.70
2022-12-03T08:34:34.193Z,85.60
2022-12-03T08:35:34.211Z,80.80
2022-12-03T08:36:34.172Z,83.30
2022-12-03T08:37:34.168Z,82.70
2022-12-03T08:38:34.152Z,80.10
2022-12-03T08:39:34.406Z,79.00
2022-12-03T08:40:34.133Z,75.20
2022-12-03T08:41:34.113Z,78.50
2022-12-03T08:42:34.106Z,77.00
2022-12-03T08:43:34.100Z,79.00
2022-12-03T08:44:34.073Z,75.90
2022-12-03T08:45:34.143Z,76.60
2022-12-03T08:46:34.064Z,81.50
2022-12-03T08:47:34.047Z,72.80
2022-12-03T08:48:34.023Z,79.40
2022-12-03T08:49:34.015Z,80.60
2022-12-03T08:50:34.016Z,79.60
2022-12-03T08:51:33.991Z,77.90
2022-12-03T08:52:33.989Z,80.30
2022-12-03T08:53:33.994Z,80.50
2022-12-03T08:54:33.975Z,77.80
2022-12-03T08:55:33.955Z,79.60
2022-12-03T08:56:33.949Z,82.00
2022-12-03T08:57:33.936Z,79.50
2022-12-03T08:58:33.936Z,80.60
2022-12-03T08:59:33.916Z,86.90
2022-12-03T09:00:34.853Z,83.70
2022-12-03T09:01:33.938Z,84.10
2022-12-03T09:02:33.877Z,88.40
2022-12-03T09:03:33.846Z,83.20
2022-12-03T09:04:33.875Z,77.40
2022-12-03T09:05:33.836Z,81.20
2022-12-03T09:06:33.808Z,84.70
2022-12-03T09:07:33.873Z,86.00
2022-12-03T09:08:33.777Z,87.60
2022-12-03T09:09:34.026Z,82.00
2022-12-03T09:10:33.768Z,85.20
2022-12-03T09:11:33.747Z,84.50
2022-12-03T09:12:33.745Z,83.80
2022-12-03T09:13:33.730Z,90.60
2022-12-03T09:14:33.697Z,79.10
2022-12-03T09:15:34.667Z,78.90
2022-12-03T09:16:33.729Z,77.80
2022-12-03T09:17:33.673Z,85.20
2022-12-03T09:18:33.648Z,80.60
2022-12-03T09:19:33.650Z,82.80
2022-12-03T09:20:33.640Z,80.90
2022-12-03T09:21:33.629Z,88.80
2022-12-03T09:22:33.609Z,79.60
2022-12-03T09:23:33.599Z,77.20
2022-12-03T09:24:33.588Z,92.40
2022-12-03T09:25:33.579Z,81.80
2022-12-03T09:26:33.551Z,92.30
2022-12-03T09:27:33.555Z,82.10
2022-12-03T09:28:33.783Z,84.50
2022-12-03T09:29:33.522Z,86.10
2022-12-03T09:30:33.514Z,84.00
2022-12-03T09:31:33.535Z,80.00
2022-12-03T09:32:33.587Z,83.70
2022-12-03T09:33:33.487Z,77.50
2022-12-03T09:34:33.461Z,83.90
2022-12-03T09:35:33.462Z,82.20
2022-12-03T09:36:33.443Z,84.10
2022-12-03T09:37:33.431Z,81.60
2022-12-03T09:38:33.411Z,81.50
2022-12-03T09:39:33.401Z,75.80
2022-12-03T09:40:33.392Z,78.90
2022-12-03T09:41:33.371Z,73.90
2022-12-03T09:42:33.386Z,74.60
2022-12-03T09:44:02.904Z,73.30
2022-12-03T09:44:34.333Z,77.30
2022-12-03T09:45:33.374Z,72.50
2022-12-03T09:46:33.383Z,73.90
2022-12-03T09:47:33.292Z,73.30
2022-12-03T09:48:33.273Z,71.60
2022-12-03T09:49:33.278Z,63.20
2022-12-03T09:50:33.267Z,69.30
2022-12-03T09:51:33.478Z,72.50
2022-12-03T09:52:33.227Z,73.00
2022-12-03T09:53:38.083Z,70.50
2022-12-03T09:54:34.226Z,71.50
2022-12-03T09:55:33.209Z,66.90
2022-12-03T09:56:33.187Z,62.70
2022-12-03T09:57:33.166Z,63.70
2022-12-03T09:58:34.950Z,70.00
2022-12-03T09:59:33.145Z,67.00
2022-12-03T10:00:33.136Z,64.50
2022-12-03T10:01:33.186Z,71.70
2022-12-03T10:02:33.104Z,67.20
2022-12-03T10:03:33.078Z,70.50
2022-12-03T10:04:33.119Z,71.20
2022-12-03T10:05:33.065Z,75.20
2022-12-03T10:06:33.057Z,69.40
2022-12-03T10:07:33.066Z,71.60
2022-12-03T10:08:33.032Z,73.00
2022-12-03T10:09:33.006Z,71.90
2022-12-03T10:10:33.007Z,69.70
2022-12-03T10:11:32.996Z,73.60
2022-12-03T10:12:33.945Z,70.70
2022-12-03T10:13:32.959Z,68.90
2022-12-03T10:14:32.947Z,80.90
2022-12-03T10:15:32.936Z,75.80
2022-12-03T10:16:32.939Z,77.70
2022-12-03T10:17:32.917Z,78.50
2022-12-03T10:18:36.878Z,73.30
2022-12-03T10:19:33.878Z,83.00
2022-12-03T10:20:32.895Z,80.30
2022-12-03T10:21:33.107Z,79.10
2022-12-03T10:22:32.859Z,78.30
2022-12-03T10:23:32.818Z,82.80
2022-12-03T10:24:32.822Z,70.50
2022-12-03T10:25:32.819Z,75.40
2022-12-03T10:26:32.780Z,75.70
2022-12-03T10:27:32.769Z,79.00
2022-12-03T10:28:32.761Z,79.40
2022-12-03T10:29:34.342Z,76.20
2022-12-03T10:30:32.820Z,73.70
2022-12-03T10:31:32.769Z,79.40
2022-12-03T10:32:32.709Z,80.20
2022-12-03T10:33:32.698Z,79.70
2022-12-03T10:34:32.708Z,75.00
2022-12-03T10:35:32.829Z,73.90
2022-12-03T10:36:32.661Z,77.50
2022-12-03T10:37:32.639Z,77.20
2022-12-03T10:38:32.645Z,78.90
2022-12-03T10:39:32.618Z,79.10
2022-12-03T10:40:32.616Z,78.90
2022-12-03T10:41:32.591Z,79.70
2022-12-03T10:42:32.581Z,80.10
2022-12-03T10:43:32.561Z,77.90
2022-12-03T10:44:32.552Z,76.90
2022-12-03T10:45:32.555Z,84.00
2022-12-03T10:46:32.628Z,82.90
2022-12-03T10:47:32.648Z,79.10
2022-12-03T10:48:32.503Z,83.30
2022-12-03T10:49:32.483Z,88.70
2022-12-03T10:50:32.492Z,89.80
2022-12-03T10:51:32.453Z,83.10
2022-12-03T10:52:32.454Z,83.60
2022-12-03T10:53:32.433Z,84.10
2022-12-03T10:54:32.423Z,80.80
2022-12-03T10:55:32.414Z,92.40
2022-12-03T10:56:32.404Z,86.70
2022-12-03T10:57:32.383Z,85.20
2022-12-03T10:58:32.384Z,88.30
2022-12-03T10:59:32.354Z,81.50
2022-12-03T11:00:32.355Z,85.20
2022-12-03T11:01:32.470Z,86.70
2022-12-03T11:02:32.343Z,91.10
2022-12-03T11:03:32.372Z,89.50
2022-12-03T11:04:32.312Z,95.60
2022-12-03T11:05:32.285Z,99.20
2022-12-03T11:06:32.265Z,92.90
2022-12-03T11:07:32.285Z,96.60
2022-12-03T11:08:32.245Z,99.60
2022-12-03T11:09:32.216Z,96.50
2022-12-03T11:10:32.215Z,90.80
2022-12-03T11:11:32.197Z,92.30
2022-12-03T11:12:32.187Z,93.90
2022-12-03T11:13:32.177Z,90.10
2022-12-03T11:14:32.177Z,99.30
2022-12-03T11:15:32.232Z,97.60
2022-12-03T11:16:32.203Z,97.70
2022-12-03T11:17:32.119Z,95.20
2022-12-03T11:18:32.117Z,105.30
2022-12-03T11:19:32.337Z,100.20
2022-12-03T11:20:32.093Z,105.60
2022-12-03T11:21:32.084Z,104.70
2022-12-03T11:22:32.078Z,101.40
2022-12-03T11:23:32.286Z,101.80
2022-12-03T11:24:32.036Z,101.50
2022-12-03T11:25:32.050Z,100.30
2022-12-03T11:26:32.001Z,105.90
2022-12-03T11:27:31.998Z,105.70
2022-12-03T11:28:31.985Z,102.20
2022-12-03T11:29:31.962Z,109.20
2022-12-03T11:30:31.969Z,100.80
2022-12-03T11:31:32.276Z,100.30
2022-12-03T11:32:32.124Z,106.00
2022-12-03T11:33:31.932Z,105.60
2022-12-03T11:34:31.929Z,108.40
2022-12-03T11:35:31.889Z,103.30
2022-12-03T11:36:54.187Z,102.80
2022-12-03T11:37:32.852Z,112.00
2022-12-03T11:38:31.869Z,103.80
2022-12-03T11:39:31.831Z,107.30
2022-12-03T11:40:37.693Z,108.50
2022-12-03T11:41:32.821Z,115.90
2022-12-03T11:42:31.822Z,107.70
2022-12-03T11:43:31.798Z,113.30
2022-12-03T11:44:31.775Z,113.00
2022-12-03T11:45:31.762Z,111.70
2022-12-03T11:46:31.787Z,119.30
2022-12-03T11:47:31.732Z,113.20
2022-12-03T11:48:31.725Z,113.00
2022-12-03T11:49:31.704Z,115.30
2022-12-03T11:50:37.590Z,107.10
2022-12-03T11:51:32.681Z,114.10
2022-12-03T11:52:31.664Z,109.90
2022-12-03T11:53:31.643Z,116.70
2022-12-03T11:54:31.648Z,108.10
2022-12-03T11:55:31.631Z,108.90
2022-12-03T11:56:32.572Z,115.50
2022-12-03T11:57:31.598Z,107.90
2022-12-03T11:58:31.591Z,109.80
2022-12-03T11:59:31.580Z,111.70
2022-12-03T12:00:31.566Z,117.80
2022-12-03T12:01:35.477Z,112.00
2022-12-03T12:02:32.573Z,117.00
2022-12-03T12:03:33.411Z,113.10
2022-12-03T12:04:31.595Z,108.00
2022-12-03T12:05:31.526Z,111.30
2022-12-03T12:06:31.513Z,115.40
2022-12-03T12:07:31.537Z,119.90
2022-12-03T12:08:31.461Z,120.90
2022-12-03T12:09:31.449Z,127.80
2022-12-03T12:10:31.435Z,121.00
2022-12-03T12:11:31.440Z,116.70
2022-12-03T12:12:31.426Z,117.20
2022-12-03T12:13:31.410Z,124.00
2022-12-03T12:14:31.458Z,125.40
2022-12-03T12:15:31.367Z,123.80
2022-12-03T12:16:31.423Z,120.30
2022-12-03T12:17:31.340Z,127.20
2022-12-03T12:18:31.317Z,122.80
2022-12-03T12:19:31.306Z,118.30
2022-12-03T12:20:31.308Z,114.40
2022-12-03T12:21:31.299Z,122.20
2022-12-03T12:22:31.267Z,118.00
2022-12-03T12:23:31.255Z,121.60
2022-12-03T12:24:31.248Z,120.20
2022-12-03T12:25:31.247Z,122.60
2022-12-03T12:26:31.218Z,123.90
2022-12-03T12:27:31.198Z,124.60
2022-12-03T12:28:31.189Z,120.40
2022-12-03T12:29:31.180Z,125.30
2022-12-03T12:30:31.172Z,121.90
2022-12-03T12:31:31.195Z,122.90
2022-12-03T12:32:31.140Z,122.50
2022-12-03T12:33:31.136Z,123.90
2022-12-03T12:34:31.118Z,125.40
2022-12-03T12:35:31.111Z,126.40
2022-12-03T12:36:31.104Z,120.90
2022-12-03T12:37:31.079Z,123.30
2022-12-03T12:38:31.067Z,126.90